createdAt,value
2023-12-16T00:01:24.331Z,21.17
2023-12-16T00:03:51.486Z,14.80
2023-12-16T00:06:21.303Z,17.58
2023-12-16T00:08:49.487Z,20.75
2023-12-16T00:11:16.602Z,17.15
2023-12-16T00:13:44.088Z,17.50
2023-12-16T00:16:12.118Z,11.23
2023-12-16T00:18:39.165Z,17.05
2023-12-16T00:21:06.190Z,13.65
2023-12-16T00:23:33.084Z,14.07
2023-12-16T00:25:59.891Z,13.50
2023-12-16T00:28:27.024Z,15.93
2023-12-16T00:30:54.003Z,13.77
2023-12-16T00:33:21.137Z,14.95
2023-12-16T00:35:48.149Z,14.02
2023-12-16T00:38:15.013Z,10.93
2023-12-16T00:40:41.965Z,14.98
2023-12-16T00:43:09.491Z,19.60
2023-12-16T00:45:39.288Z,15.65
2023-12-16T00:48:09.249Z,13.30
2023-12-16T00:50:39.429Z,12.00
2023-12-16T00:53:06.458Z,11.73
2023-12-16T00:55:33.459Z,14.10
2023-12-16T00:58:00.358Z,15.38
2023-12-16T01:00:27.810Z,18.45
2023-12-16T01:02:54.885Z,16.63
2023-12-16T01:05:21.801Z,13.07
2023-12-16T01:07:48.681Z,11.55
2023-12-16T01:10:16.224Z,14.85
2023-12-16T01:12:43.159Z,12.98
2023-12-16T01:15:10.756Z,18.27
2023-12-16T01:17:40.717Z,17.98
2023-12-16T01:20:08.883Z,19.00
2023-12-16T01:22:35.998Z,14.00
2023-12-16T01:25:03.070Z,11.95
2023-12-16T01:27:30.073Z,16.37
2023-12-16T01:29:57.096Z,18.13
2023-12-16T01:32:24.079Z,23.70
2023-12-16T01:34:50.939Z,21.40
2023-12-16T01:37:17.851Z,14.73
2023-12-16T01:39:44.784Z,14.23
2023-12-16T01:42:11.776Z,23.48
2023-12-16T01:44:40.876Z,16.15
2023-12-16T01:47:08.420Z,17.75
2023-12-16T01:49:35.796Z,13.95
2023-12-16T01:52:03.004Z,25.83
2023-12-16T01:54:30.036Z,21.05
2023-12-16T01:56:59.581Z,20.35
2023-12-16T01:59:27.815Z,15.43
2023-12-16T02:01:56.069Z,22.83
2023-12-16T02:04:23.292Z,16.33
2023-12-16T02:06:51.577Z,18.13
2023-12-16T02:09:20.709Z,17.67
2023-12-16T02:11:47.666Z,13.23
2023-12-16T02:14:14.574Z,20.75
2023-12-16T02:16:44.486Z,16.87
2023-12-16T02:19:16.061Z,23.13
2023-12-16T02:21:43.186Z,22.65
2023-12-16T02:24:10.046Z,12.48
2023-12-16T02:26:36.928Z,21.05
2023-12-16T02:29:04.201Z,19.83
2023-12-16T02:31:31.155Z,23.95
2023-12-16T02:33:58.293Z,20.92
2023-12-16T02:36:25.793Z,21.25
2023-12-16T02:38:52.719Z,16.48
2023-12-16T02:41:19.593Z,15.47
2023-12-16T02:43:46.595Z,20.40
2023-12-16T02:46:13.518Z,18.98
2023-12-16T02:48:40.460Z,16.75
2023-12-16T02:51:07.626Z,19.15
2023-12-16T02:53:34.480Z,20.63
2023-12-16T02:56:01.341Z,23.10
2023-12-16T02:58:28.286Z,24.33
2023-12-16T03:00:55.446Z,24.33
2023-12-16T03:03:22.536Z,19.60
2023-12-16T03:05:49.434Z,21.07
2023-12-16T03:08:17.577Z,26.30
2023-12-16T03:10:47.995Z,21.38
2023-12-16T03:13:14.991Z,16.27
2023-12-16T03:15:41.867Z,31.77
2023-12-16T03:18:08.922Z,27.13
2023-12-16T03:20:35.946Z,12.32
2023-12-16T03:23:02.725Z,29.05
2023-12-16T03:25:29.787Z,12.60
2023-12-16T03:27:56.825Z,20.95
2023-12-16T03:30:24.003Z,21.50
2023-12-16T03:32:50.933Z,26.42
2023-12-16T03:35:18.042Z,25.75
2023-12-16T03:37:47.471Z,14.40
2023-12-16T03:40:14.487Z,16.65
2023-12-16T03:42:41.434Z,23.07
2023-12-16T03:45:08.647Z,23.20
2023-12-16T03:47:36.229Z,14.38
2023-12-16T03:50:03.532Z,28.13
2023-12-16T03:52:30.597Z,29.33
2023-12-16T03:54:57.494Z,18.87
2023-12-16T03:57:24.358Z,19.17
2023-12-16T03:59:51.320Z,20.08
2023-12-16T04:02:18.266Z,31.52
2023-12-16T04:04:45.311Z,21.55
2023-12-16T04:07:13.018Z,18.23
2023-12-16T04:09:41.234Z,25.30
2023-12-16T04:12:08.608Z,26.58
2023-12-16T04:14:39.957Z,25.55
2023-12-16T04:17:07.334Z,21.75
2023-12-16T04:19:34.334Z,22.37
2023-12-16T04:22:01.301Z,23.90
2023-12-16T04:24:28.173Z,24.63
2023-12-16T04:26:56.704Z,29.92
2023-12-16T04:29:23.534Z,29.48
2023-12-16T04:31:50.451Z,35.80
2023-12-16T04:34:17.515Z,23.65
2023-12-16T04:36:45.206Z,18.85
2023-12-16T04:39:12.151Z,33.58
2023-12-16T04:41:39.012Z,26.88
2023-12-16T04:44:06.646Z,20.20
2023-12-16T04:46:34.427Z,31.60
2023-12-16T04:49:01.366Z,31.45
2023-12-16T04:51:28.663Z,24.15
2023-12-16T04:53:57.575Z,25.80
2023-12-16T04:56:24.726Z,27.10
2023-12-16T04:58:54.859Z,30.50
2023-12-16T05:01:22.421Z,25.98
2023-12-16T05:03:51.815Z,23.85
2023-12-16T05:06:18.842Z,32.05
2023-12-16T05:08:45.830Z,19.03
2023-12-16T05:11:12.865Z,29.95
2023-12-16T05:13:39.912Z,22.35
2023-12-16T05:16:08.971Z,27.77
2023-12-16T05:18:36.590Z,30.15
2023-12-16T05:21:03.610Z,23.93
2023-12-16T05:23:30.573Z,25.33
2023-12-16T05:25:57.893Z,24.20
2023-12-16T05:28:24.873Z,27.42
2023-12-16T05:30:54.190Z,25.75
2023-12-16T05:33:21.314Z,32.20
2023-12-16T05:35:48.368Z,27.35
2023-12-16T05:38:15.381Z,25.50
2023-12-16T05:40:42.450Z,15.60
2023-12-16T05:43:09.713Z,24.20
2023-12-16T05:45:37.097Z,35.60
2023-12-16T05:48:04.226Z,30.10
2023-12-16T05:50:31.288Z,18.83
2023-12-16T05:52:58.620Z,33.00
2023-12-16T05:55:25.662Z,23.00
2023-12-16T05:57:55.578Z,28.93
2023-12-16T06:00:22.603Z,29.10
2023-12-16T06:02:49.861Z,24.80
2023-12-16T06:05:17.190Z,22.17
2023-12-16T06:07:47.462Z,29.85
2023-12-16T06:10:14.575Z,32.57
2023-12-16T06:12:41.766Z,37.47
2023-12-16T06:15:09.189Z,22.33
2023-12-16T06:17:36.558Z,27.48
2023-12-16T06:20:06.018Z,29.65
2023-12-16T06:22:33.110Z,21.20
2023-12-16T06:25:00.112Z,24.65
2023-12-16T06:27:27.160Z,32.30
2023-12-16T06:29:54.124Z,38.67
2023-12-16T06:32:24.546Z,39.53
2023-12-16T06:34:51.738Z,30.27
2023-12-16T06:37:18.749Z,18.15
2023-12-16T06:39:45.782Z,28.55
2023-12-16T06:42:15.915Z,26.77
2023-12-16T06:44:43.671Z,26.23
2023-12-16T06:47:10.771Z,28.10
2023-12-16T06:49:38.409Z,32.08
2023-12-16T06:52:15.038Z,23.38
2023-12-16T06:54:42.218Z,28.48
2023-12-16T06:57:16.900Z,28.27
2023-12-16T06:59:48.194Z,32.87
2023-12-16T07:02:15.171Z,25.75
2023-12-16T07:04:42.286Z,30.67
2023-12-16T07:07:09.594Z,26.15
2023-12-16T07:09:36.526Z,27.17
2023-12-16T07:12:04.443Z,36.30
2023-12-16T07:14:31.737Z,22.48
2023-12-16T07:16:59.348Z,27.15
2023-12-16T07:19:26.783Z,26.02
2023-12-16T07:21:53.881Z,29.38
2023-12-16T07:24:20.905Z,21.40
2023-12-16T07:26:47.840Z,27.23
2023-12-16T07:29:15.075Z,22.15
2023-12-16T07:31:48.875Z,24.52
2023-12-16T07:34:22.195Z,29.10
2023-12-16T07:36:49.352Z,26.97
2023-12-16T07:39:16.281Z,25.88
2023-12-16T07:41:43.437Z,28.27
2023-12-16T07:44:10.552Z,21.85
2023-12-16T07:46:37.483Z,24.40
2023-12-16T07:49:04.618Z,28.30
2023-12-16T07:51:31.676Z,29.75
2023-12-16T07:54:00.715Z,22.35
2023-12-16T07:56:28.981Z,24.48
2023-12-16T07:58:58.623Z,25.13
2023-12-16T08:01:25.552Z,28.00
2023-12-16T08:03:52.641Z,26.58
2023-12-16T08:06:19.767Z,23.75
2023-12-16T08:08:46.612Z,22.38
2023-12-16T08:11:14.140Z,33.92
2023-12-16T08:13:41.419Z,30.13
2023-12-16T08:16:10.182Z,30.58
2023-12-16T08:18:37.256Z,30.48
2023-12-16T08:21:04.642Z,33.35
2023-12-16T08:23:31.512Z,30.95
2023-12-16T08:25:58.544Z,27.70
2023-12-16T08:28:25.541Z,26.35
2023-12-16T08:30:53.637Z,32.08
2023-12-16T08:33:20.913Z,22.70
2023-12-16T08:35:49.854Z,27.15
2023-12-16T08:38:24.348Z,21.37
2023-12-16T08:40:54.212Z,26.38
2023-12-16T08:43:21.148Z,22.95
2023-12-16T08:45:48.043Z,29.90
2023-12-16T08:48:15.065Z,24.02
2023-12-16T08:50:41.950Z,27.67
2023-12-16T08:53:10.847Z,22.48
2023-12-16T08:55:37.780Z,26.83
2023-12-16T08:58:04.605Z,27.23
2023-12-16T09:00:31.574Z,28.60
2023-12-16T09:02:58.424Z,27.80
2023-12-16T09:05:28.217Z,24.75
2023-12-16T09:07:55.255Z,36.72
2023-12-16T09:10:22.764Z,26.45
2023-12-16T09:12:49.758Z,25.63
2023-12-16T09:15:17.402Z,27.77
2023-12-16T09:17:45.699Z,25.42
2023-12-16T09:20:13.741Z,27.70
2023-12-16T09:22:41.797Z,25.40
2023-12-16T09:25:09.990Z,36.80
2023-12-16T09:27:37.413Z,22.97
2023-12-16T09:30:08.394Z,27.05
2023-12-16T09:32:35.613Z,24.67
2023-12-16T09:35:06.062Z,32.20
2023-12-16T09:37:32.970Z,27.90
2023-12-16T09:39:59.824Z,30.40
2023-12-16T09:42:27.262Z,29.90
2023-12-16T09:44:59.542Z,32.35
2023-12-16T09:47:26.756Z,30.42
2023-12-16T09:49:57.730Z,23.92
2023-12-16T09:52:25.079Z,34.10
2023-12-16T09:54:53.189Z,45.00
2023-12-16T09:57:22.604Z,38.22
2023-12-16T09:59:52.527Z,29.20
2023-12-16T10:02:28.640Z,26.75
2023-12-16T10:05:00.624Z,33.90
2023-12-16T10:07:27.741Z,39.90
2023-12-16T10:09:54.782Z,28.90
2023-12-16T10:12:22.370Z,40.53
2023-12-16T10:14:51.731Z,35.38
2023-12-16T10:17:22.300Z,43.13
2023-12-16T10:19:50.322Z,34.00
2023-12-16T10:22:20.935Z,39.60
2023-12-16T10:24:48.168Z,41.10
2023-12-16T10:27:16.952Z,31.92
2023-12-16T10:29:57.996Z,45.50
2023-12-16T10:32:30.356Z,38.45
2023-12-16T10:34:57.478Z,37.13
2023-12-16T10:37:25.096Z,47.10
2023-12-16T10:39:52.168Z,49.63
2023-12-16T10:42:19.208Z,50.23
2023-12-16T10:44:46.244Z,41.35
2023-12-16T10:47:18.004Z,43.70
2023-12-16T10:49:46.606Z,38.20
2023-12-16T10:52:15.099Z,42.53
2023-12-16T10:54:44.934Z,49.30
2023-12-16T10:57:27.630Z,40.58
2023-12-16T11:00:06.843Z,56.80
2023-12-16T11:02:42.315Z,46.28
2023-12-16T11:05:34.261Z,42.72
2023-12-16T11:08:05.302Z,45.87
2023-12-16T11:10:32.493Z,60.10
2023-12-16T11:13:01.554Z,39.10
2023-12-16T11:15:29.640Z,43.42
2023-12-16T11:18:02.498Z,56.25
2023-12-16T11:20:41.146Z,57.07
2023-12-16T11:23:11.650Z,66.43
2023-12-16T11:25:43.916Z,55.47
2023-12-16T11:28:15.260Z,49.50
2023-12-16T11:30:42.768Z,50.92
2023-12-16T11:33:10.250Z,41.53
2023-12-16T11:35:52.212Z,38.22
2023-12-16T11:38:42.800Z,52.75
2023-12-16T11:41:35.823Z,40.25
2023-12-16T11:44:02.715Z,45.97
2023-12-16T11:46:34.109Z,50.03
2023-12-16T11:49:05.495Z,48.17
2023-12-16T11:51:40.385Z,44.42
2023-12-16T11:54:09.757Z,43.20
2023-12-16T11:56:37.295Z,50.28
2023-12-16T11:59:05.265Z,43.63
2023-12-16T12:01:34.571Z,35.67
2023-12-16T12:04:06.628Z,53.25
2023-12-16T12:06:35.092Z,49.08
2023-12-16T12:09:02.278Z,46.50
2023-12-16T12:11:29.251Z,45.80
2023-12-16T12:13:57.958Z,40.67
2023-12-16T12:16:31.984Z,50.63
2023-12-16T12:19:03.428Z,47.83
2023-12-16T12:21:31.227Z,48.13
2023-12-16T12:24:05.583Z,31.77
2023-12-16T12:26:51.653Z,40.88
2023-12-16T12:29:49.540Z,32.47
2023-12-16T12:32:11.156Z,35.40
2023-12-16T12:34:38.328Z,33.30
2023-12-16T12:37:05.591Z,37.03
2023-12-16T12:39:32.902Z,36.50
2023-12-16T12:42:04.912Z,33.70
2023-12-16T12:45:02.627Z,33.38
2023-12-16T12:47:31.225Z,25.23
2023-12-16T12:50:09.537Z,28.43
2023-12-16T12:53:17.114Z,26.85
2023-12-16T12:55:25.244Z,28.88
2023-12-16T12:58:04.282Z,25.08
2023-12-16T13:00:40.140Z,28.73
2023-12-16T13:03:08.749Z,20.33
2023-12-16T13:05:40.021Z,19.70
2023-12-16T13:08:15.308Z,27.05
2023-12-16T13:10:48.020Z,21.52
2023-12-16T13:13:25.017Z,21.92
2023-12-16T13:15:55.848Z,21.23
2023-12-16T13:18:27.018Z,21.02
2023-12-16T13:20:56.120Z,17.10
2023-12-16T13:23:27.395Z,20.73
2023-12-16T13:25:55.781Z,17.17
2023-12-16T13:28:23.421Z,22.13
2023-12-16T13:30:58.252Z,22.17
2023-12-16T13:33:25.527Z,15.23
2023-12-16T13:35:53.277Z,13.75
2023-12-16T13:38:35.212Z,19.60
2023-12-16T13:41:05.494Z,18.30
2023-12-16T13:43:32.341Z,18.60
2023-12-16T13:46:00.706Z,19.33
2023-12-16T13:48:27.986Z,19.25
2023-12-16T13:50:55.356Z,16.50
2023-12-16T13:53:22.282Z,22.30
2023-12-16T13:55:49.404Z,21.45
2023-12-16T13:58:16.470Z,16.13
2023-12-16T14:00:43.761Z,18.70
2023-12-16T14:03:10.812Z,17.75
2023-12-16T14:05:38.137Z,17.43
2023-12-16T14:08:05.385Z,18.73
2023-12-16T14:10:32.478Z,13.18
2023-12-16T14:12:59.369Z,13.18
2023-12-16T14:15:26.666Z,12.10
2023-12-16T14:17:53.857Z,17.00
2023-12-16T14:20:21.140Z,17.13
2023-12-16T14:22:50.697Z,16.58
2023-12-16T14:25:20.633Z,14.65
2023-12-16T14:27:48.130Z,16.15
2023-12-16T14:30:19.359Z,13.83
2023-12-16T14:32:46.762Z,14.15
2023-12-16T14:35:16.580Z,14.52
2023-12-16T14:37:43.685Z,15.30
2023-12-16T14:40:11.711Z,16.08
2023-12-16T16:37:31.191Z,48.50
2023-12-16T16:39:59.979Z,48.42
2023-12-16T16:42:28.460Z,40.42
2023-12-16T16:44:58.613Z,41.20
2023-12-16T16:47:25.770Z,47.20
2023-12-16T16:49:53.258Z,55.75
2023-12-16T16:52:20.449Z,58.35
2023-12-16T16:54:47.586Z,47.80
2023-12-16T16:57:16.270Z,55.72
2023-12-16T16:59:43.309Z,56.03
2023-12-16T17:02:12.090Z,49.17
2023-12-16T17:04:40.752Z,51.80
2023-12-16T17:07:07.822Z,47.53
2023-12-16T17:09:34.831Z,49.42
2023-12-16T17:12:01.741Z,41.40
2023-12-16T17:14:28.586Z,47.53
2023-12-16T17:16:55.438Z,40.45
2023-12-16T17:19:25.544Z,46.30
2023-12-16T17:21:52.535Z,38.63
2023-12-16T17:24:20.124Z,35.13
2023-12-16T17:26:47.151Z,34.70
2023-12-16T17:29:14.254Z,32.90
2023-12-16T17:31:42.014Z,34.17
2023-12-16T17:34:10.233Z,33.35
2023-12-16T17:36:37.772Z,31.77
2023-12-16T17:39:05.505Z,38.20
2023-12-16T17:41:35.855Z,37.20
2023-12-16T17:44:03.314Z,36.33
2023-12-16T17:46:30.249Z,27.75
2023-12-16T17:48:57.441Z,30.30
2023-12-16T17:51:24.601Z,26.98
2023-12-16T17:53:52.906Z,26.73
2023-12-16T17:56:19.783Z,29.60
2023-12-16T17:58:47.550Z,24.80
2023-12-16T18:01:17.549Z,30.37
2023-12-16T18:03:45.728Z,29.65
2023-12-16T18:06:16.400Z,25.50
2023-12-16T18:08:43.377Z,31.17
2023-12-16T18:11:10.497Z,32.50
2023-12-16T18:13:38.246Z,31.63
2023-12-16T18:16:09.063Z,34.42
2023-12-16T18:18:42.268Z,32.25
2023-12-16T18:21:19.269Z,33.53
2023-12-16T18:23:52.575Z,31.73
2023-12-16T18:26:20.913Z,37.87
2023-12-16T18:28:47.965Z,32.88
2023-12-16T18:31:19.112Z,34.83
2023-12-16T18:33:46.911Z,30.40
2023-12-16T18:36:18.555Z,32.58
2023-12-16T18:38:46.115Z,35.37
2023-12-16T18:41:16.097Z,37.92
2023-12-16T18:43:44.917Z,41.45
2023-12-16T18:46:19.125Z,33.95
2023-12-16T18:48:49.805Z,33.85
2023-12-16T18:51:24.497Z,32.67
2023-12-16T18:56:35.199Z,29.67
2023-12-16T18:59:02.112Z,30.42
2023-12-16T19:01:29.320Z,28.88
2023-12-16T19:04:00.637Z,29.37
2023-12-16T19:06:30.353Z,36.05
2023-12-16T19:08:59.312Z,48.40
2023-12-16T19:11:26.617Z,51.60
2023-12-16T19:13:53.896Z,33.50
2023-12-16T19:16:20.967Z,28.97
2023-12-16T19:18:51.474Z,30.38
2023-12-16T19:21:22.179Z,20.83
2023-12-16T19:23:49.508Z,29.73
2023-12-16T19:26:20.376Z,23.92
2023-12-16T19:28:47.672Z,23.33
2023-12-16T19:31:14.658Z,22.05
2023-12-16T19:33:42.629Z,24.75
2023-12-16T19:36:13.083Z,22.88
2023-12-16T19:38:40.590Z,21.17
2023-12-16T19:41:16.088Z,16.90
2023-12-16T19:43:50.867Z,18.10
2023-12-16T19:46:25.933Z,19.83
2023-12-16T19:49:00.014Z,23.05
2023-12-16T19:54:22.637Z,20.37
2023-12-16T19:56:51.085Z,20.55
2023-12-16T19:59:21.670Z,22.25
2023-12-16T20:01:49.914Z,24.98
2023-12-16T20:04:25.680Z,24.63
2023-12-16T20:06:52.790Z,18.47
2023-12-16T20:09:22.871Z,19.70
2023-12-16T20:11:49.913Z,27.42
2023-12-16T20:14:26.539Z,32.47
2023-12-16T20:16:53.549Z,25.70
2023-12-16T20:19:23.491Z,17.70
2023-12-16T20:21:51.723Z,36.03
2023-12-16T20:24:21.481Z,52.30
2023-12-16T20:26:48.520Z,39.33
2023-12-16T20:29:15.523Z,29.42
2023-12-16T20:31:43.408Z,17.93
2023-12-16T20:34:10.879Z,14.43
2023-12-16T20:36:38.117Z,13.57
2023-12-16T20:39:23.766Z,13.80
2023-12-16T20:41:50.955Z,14.30
2023-12-16T20:44:28.257Z,17.10
2023-12-16T20:47:05.039Z,15.38
2023-12-16T20:49:42.129Z,16.52
2023-12-16T20:52:09.570Z,18.77
2023-12-16T20:54:37.844Z,18.58
2023-12-16T20:57:05.132Z,14.47
2023-12-16T20:59:32.322Z,14.60
2023-12-16T21:02:06.135Z,12.77
2023-12-16T21:04:33.053Z,15.07
2023-12-16T21:07:00.344Z,16.48
2023-12-16T21:09:27.412Z,15.57
2023-12-16T21:11:54.388Z,15.95
2023-12-16T21:14:23.990Z,17.75
2023-12-16T21:16:50.933Z,18.85
2023-12-16T21:19:20.812Z,17.25
2023-12-16T21:21:48.196Z,16.57
2023-12-16T21:24:15.193Z,17.00
2023-12-16T21:26:43.776Z,23.05
2023-12-16T21:29:11.678Z,14.73
2023-12-16T21:31:38.936Z,25.45
2023-12-16T21:34:06.002Z,20.27
2023-12-16T21:36:32.995Z,21.83
2023-12-16T21:38:59.958Z,21.98
2023-12-16T21:41:26.901Z,24.60
2023-12-16T21:43:55.678Z,22.45
2023-12-16T21:46:27.027Z,21.00
2023-12-16T21:48:54.050Z,15.27
2023-12-16T21:51:23.649Z,17.55
2023-12-16T21:53:51.467Z,14.95
2023-12-16T21:56:18.438Z,18.52
2023-12-16T21:58:45.519Z,13.23
2023-12-16T22:01:17.162Z,13.60
2023-12-16T22:03:44.096Z,15.73
2023-12-16T22:06:11.207Z,18.42
2023-12-16T22:08:42.433Z,13.85
2023-12-16T22:11:16.407Z,22.43
2023-12-16T22:13:43.370Z,19.75
2023-12-16T22:16:11.204Z,17.05
2023-12-16T22:18:38.925Z,20.13
2023-12-16T22:21:06.114Z,18.17
2023-12-16T22:23:33.054Z,13.23
2023-12-16T22:26:06.997Z,15.73
2023-12-16T22:28:33.947Z,13.63
2023-12-16T22:31:00.855Z,13.55
2023-12-16T22:33:29.348Z,13.95
2023-12-16T22:35:56.417Z,12.13
2023-12-16T22:38:23.232Z,13.80
2023-12-16T22:40:50.042Z,18.02
2023-12-16T22:43:20.470Z,16.35
2023-12-16T22:45:47.677Z,12.40
2023-12-16T22:48:15.158Z,11.13
2023-12-16T22:50:42.367Z,12.60
2023-12-16T22:53:09.336Z,14.50
2023-12-16T22:55:36.117Z,14.70
2023-12-16T22:58:02.943Z,14.68
2023-12-16T23:00:32.338Z,12.23
2023-12-16T23:02:59.744Z,14.32
2023-12-16T23:05:28.942Z,10.95
2023-12-16T23:07:55.794Z,13.15
2023-12-16T23:10:26.077Z,15.20
2023-12-16T23:12:56.665Z,12.87
2023-12-16T23:15:24.429Z,12.52
2023-12-16T23:17:51.893Z,15.73
2023-12-16T23:20:19.118Z,12.88
2023-12-16T23:22:46.035Z,12.23
2023-12-16T23:25:12.900Z,10.33
2023-12-16T23:27:40.378Z,13.43
2023-12-16T23:30:08.063Z,17.23
2023-12-16T23:32:35.000Z,14.05
2023-12-16T23:35:02.131Z,12.90
2023-12-16T23:37:32.345Z,12.80
2023-12-16T23:39:59.430Z,13.70
2023-12-16T23:42:26.386Z,12.48
2023-12-16T23:44:53.304Z,11.50
2023-12-16T23:47:20.178Z,27.20
2023-12-16T23:49:47.280Z,28.40
2023-12-16T23:52:14.261Z,17.27
2023-12-16T23:54:41.168Z,13.73
2023-12-16T23:57:08.124Z,12.30
2023-12-16T23:59:35.020Z,13.77
